Time;durP1;ratioP1;P1;durP2;ratioP2;P2;SDS_P1;SDS_P2;PMS_P1;PMS_P2;Temp;Humidity;BMP_temperature;BMP_pressure;BME280_temperature;BME280_humidity;BME280_pressure;Samples;Min_cycle;Max_cycle;Signal;HPM_P1;HPM_P2
2022/12/28 00:00:26;;;;;;;;;;;;;;;8.54;nan;102115.41;5018791;28;19924;-32
2022/12/28 00:02:51;;;;;;;;;;;;;;;8.55;nan;102119.72;5025693;28;19917;-33
2022/12/28 00:05:17;;;;;;;;;;;;;;;8.56;nan;102116.03;5021552;28;19917;-33
2022/12/28 00:07:43;;;;;;;;;;;;;;;8.57;nan;102103.50;5016331;28;19925;-33
2022/12/28 00:10:08;;;;;;;;;;;;;;;8.55;nan;102095.69;5017734;28;19921;-33
2022/12/28 00:12:33;;;;;;;;;;;;;;;8.53;nan;102081.69;5017754;28;19917;-33
2022/12/28 00:14:59;;;;;;;;;;;;;;;8.50;nan;102074.09;5023781;28;19921;-34
2022/12/28 00:17:24;;;;;;;;;;;;;;;8.50;nan;102065.25;5017418;28;20622;-33
2022/12/28 00:19:49;;;;;;;;;;;;;;;8.46;nan;102064.84;5022751;28;19918;-33
2022/12/28 00:22:15;;;;;;;;;;;;;;;8.43;nan;102068.72;5019252;28;20319;-33
2022/12/28 00:24:40;;;;;;;;;;;;;;;8.42;nan;102060.91;5018036;28;19940;-32
2022/12/28 00:27:06;;;;;;;;;;;;;;;8.40;nan;102065.63;5017628;28;19932;-33
2022/12/28 00:29:31;;;;;;;;;;;;;;;8.38;nan;102067.69;5020993;28;19918;-33
2022/12/28 00:31:56;;;;;;;;;;;;;;;8.36;nan;102075.91;5018485;28;19939;-33
2022/12/28 00:34:22;;;;;;;;;;;;;;;8.35;nan;102068.09;5017949;28;19925;-33
2022/12/28 00:36:50;;;;;;;;;;;;;;;8.34;nan;102077.13;5018145;28;19932;-32
2022/12/28 00:39:16;;;;;;;;;;;;;;;8.32;nan;102068.47;5017857;28;19925;-33
2022/12/28 00:41:41;;;;;;;;;;;;;;;8.31;nan;102062.31;5022632;28;19979;-34
2022/12/28 00:44:07;;;;;;;;;;;;;;;8.30;nan;102060.66;5020458;28;19963;-33
2022/12/28 00:46:32;;;;;;;;;;;;;;;8.28;nan;102054.69;5022626;28;19980;-33
2022/12/28 00:48:58;;;;;;;;;;;;;;;8.29;nan;102059.00;5023197;28;19932;-33
2022/12/28 00:51:23;;;;;;;;;;;;;;;8.30;nan;102058.00;5023572;28;19952;-33
2022/12/28 00:53:48;;;;;;;;;;;;;;;8.31;nan;102040.94;5019236;28;19921;-33
2022/12/28 00:56:15;;;;;;;;;;;;;;;8.31;nan;102046.28;5020822;28;20347;-33
2022/12/28 00:58:41;;;;;;;;;;;;;;;8.34;nan;102055.78;5026013;28;20290;-33
2022/12/28 01:01:10;;;;;;;;;;;;;;;8.35;nan;102052.06;5027647;28;19925;-33
2022/12/28 01:03:35;;;;;;;;;;;;;;;8.36;nan;102053.72;5025118;28;20115;-33
2022/12/28 01:06:05;;;;;;;;;;;;;;;8.38;nan;102057.00;5020521;28;19993;-34
2022/12/28 01:08:30;;;;;;;;;;;;;;;8.38;nan;102051.66;5016843;28;19921;-33
2022/12/28 01:10:55;;;;;;;;;;;;;;;8.41;nan;102046.72;5024266;28;19924;-34
2022/12/28 01:13:21;;;;;;;;;;;;;;;8.40;nan;102038.94;5019630;28;19944;-33
2022/12/28 01:15:46;;;;;;;;;;;;;;;8.41;nan;102030.72;5019299;28;20000;-33
2022/12/28 01:18:11;;;;;;;;;;;;;;;8.42;nan;102031.53;5018869;28;19925;-33
2022/12/28 01:20:38;;;;;;;;;;;;;;;8.42;nan;102026.19;5021190;28;19924;-33
2022/12/28 01:23:03;;;;;;;;;;;;;;;8.40;nan;102022.91;5023520;28;20366;-34
2022/12/28 01:25:28;;;;;;;;;;;;;;;8.39;nan;102026.59;5019946;28;19959;-33
2022/12/28 01:27:53;;;;;;;;;;;;;;;8.40;nan;102020.22;5020085;28;20394;-33
2022/12/28 01:30:19;;;;;;;;;;;;;;;8.38;nan;102011.59;5022537;28;19936;-33
2022/12/28 01:32:44;;;;;;;;;;;;;;;8.41;nan;102013.88;5037356;28;19918;-33
2022/12/28 01:35:10;;;;;;;;;;;;;;;8.44;nan;102008.97;5021624;28;19957;-33
2022/12/28 01:37:35;;;;;;;;;;;;;;;8.45;nan;102015.94;5024820;28;20264;-32
2022/12/28 01:40:00;;;;;;;;;;;;;;;8.47;nan;102018.41;5021522;28;19924;-33
2022/12/28 01:42:26;;;;;;;;;;;;;;;8.47;nan;102015.75;5025494;28;19925;-33
2022/12/28 01:44:52;;;;;;;;;;;;;;;8.41;nan;101995.16;5051841;22;19932;-31
2022/12/28 01:47:35;;;;;;;;;;;;;;;8.44;nan;101981.44;5047501;28;19921;-31
2022/12/28 01:50:08;;;;;;;;;;;;;;;8.46;nan;101984.72;5039539;28;20400;-31
2022/12/28 01:52:43;;;;;;;;;;;;;;;8.46;nan;101971.38;5046823;28;19931;-31
2022/12/28 01:55:20;;;;;;;;;;;;;;;8.47;nan;101965.00;5063888;28;19970;-31
2022/12/28 01:57:57;;;;;;;;;;;;;;;8.50;nan;101964.59;5068956;28;20010;-31
2022/12/28 02:00:23;;;;;;;;;;;;;;;8.52;nan;101949.16;5060710;28;19986;-31
2022/12/28 02:02:51;;;;;;;;;;;;;;;8.58;nan;101947.53;5061235;28;19921;-31
2022/12/28 02:05:17;;;;;;;;;;;;;;;8.54;nan;101939.09;5067331;28;19993;-31
2022/12/28 02:07:50;;;;;;;;;;;;;;;8.61;nan;101941.75;5061519;28;19932;-31
2022/12/28 02:10:16;;;;;;;;;;;;;;;8.61;nan;101933.75;5063758;28;19991;-31
2022/12/28 02:12:41;;;;;;;;;;;;;;;8.63;nan;101935.22;5062758;28;20007;-31
2022/12/28 02:15:07;;;;;;;;;;;;;;;8.66;nan;101931.28;5064396;28;20307;-31
2022/12/28 02:17:33;;;;;;;;;;;;;;;8.67;nan;101931.09;5065166;28;19924;-31
2022/12/28 02:19:58;;;;;;;;;;;;;;;8.66;nan;101926.78;5063037;28;19923;-31
2022/12/28 02:22:26;;;;;;;;;;;;;;;8.74;nan;101917.72;5062624;28;20343;-31
2022/12/28 02:25:03;;;;;;;;;;;;;;;8.74;nan;101913.19;5062760;28;19916;-31
2022/12/28 02:27:44;;;;;;;;;;;;;;;8.78;nan;101910.91;5063161;28;20032;-31
2022/12/28 02:30:12;;;;;;;;;;;;;;;8.78;nan;101901.03;5060176;28;20267;-31
2022/12/28 02:32:56;;;;;;;;;;;;;;;8.82;nan;101906.81;5065981;28;20305;-31
2022/12/28 02:35:27;;;;;;;;;;;;;;;8.83;nan;101904.97;5058674;28;20349;-31
2022/12/28 02:37:53;;;;;;;;;;;;;;;8.81;nan;101896.34;5057103;28;20464;-31
2022/12/28 02:40:23;;;;;;;;;;;;;;;8.81;nan;101885.66;5063633;28;19916;-31
2022/12/28 02:42:50;;;;;;;;;;;;;;;8.88;nan;101881.94;5070043;28;19947;-31
2022/12/28 02:51:17;;;;;;;;;;;;;;;8.93;nan;101867.94;5057708;28;19931;-31
2022/12/28 02:54:01;;;;;;;;;;;;;;;8.92;nan;101863.63;5059494;28;19967;-31
2022/12/28 02:56:41;;;;;;;;;;;;;;;8.94;nan;101846.34;5058914;28;21516;-31
2022/12/28 02:59:25;;;;;;;;;;;;;;;8.99;nan;101841.19;5062345;28;19924;-31
2022/12/28 03:02:02;;;;;;;;;;;;;;;9.02;nan;101834.59;5063051;28;20361;-31
2022/12/28 03:04:31;;;;;;;;;;;;;;;9.01;nan;101828.44;5064202;28;19931;-31
2022/12/28 03:09:52;;;;;;;;;;;;;;;9.02;nan;101814.03;5063490;28;19946;-31
2022/12/28 03:12:28;;;;;;;;;;;;;;;9.04;nan;101814.66;5062366;28;20293;-31
2022/12/28 03:14:54;;;;;;;;;;;;;;;9.09;nan;101809.47;5060781;28;19923;-32
2022/12/28 03:31:23;;;;;;;;;;;;;;;9.18;nan;101777.97;5003115;28;19932;-32
2022/12/28 03:33:51;;;;;;;;;;;;;;;9.14;nan;101767.91;5009087;28;19982;-33
2022/12/28 03:36:16;;;;;;;;;;;;;;;9.15;nan;101772.22;5062350;28;20361;-32
2022/12/28 03:38:41;;;;;;;;;;;;;;;9.11;nan;101761.13;5063302;28;19965;-31
2022/12/28 03:41:11;;;;;;;;;;;;;;;9.19;nan;101754.75;5062202;28;19977;-32
2022/12/28 03:43:44;;;;;;;;;;;;;;;9.16;nan;101741.81;5060566;28;19928;-32
2022/12/28 03:46:22;;;;;;;;;;;;;;;9.18;nan;101732.53;5064072;28;20369;-32
2022/12/28 03:48:48;;;;;;;;;;;;;;;9.17;nan;101730.88;5064752;28;19916;-32
2022/12/28 03:51:15;;;;;;;;;;;;;;;9.21;nan;101732.09;5060714;28;19952;-31
2022/12/28 03:53:42;;;;;;;;;;;;;;;9.21;nan;101721.41;5062133;28;19931;-32
2022/12/28 03:56:18;;;;;;;;;;;;;;;9.23;nan;101723.84;5061101;28;19931;-31
2022/12/28 03:58:43;;;;;;;;;;;;;;;9.29;nan;101717.63;5062459;28;19925;-32
2022/12/28 04:01:09;;;;;;;;;;;;;;;9.25;nan;101719.09;5060868;28;19923;-31
2022/12/28 04:03:34;;;;;;;;;;;;;;;9.24;nan;101715.63;5060063;28;19917;-31
2022/12/28 04:06:00;;;;;;;;;;;;;;;9.28;nan;101710.66;5063101;28;19925;-32
2022/12/28 04:08:25;;;;;;;;;;;;;;;9.27;nan;101703.66;5060361;28;19951;-31
2022/12/28 04:10:51;;;;;;;;;;;;;;;9.33;nan;101698.25;5059762;28;20034;-31
2022/12/28 04:13:16;;;;;;;;;;;;;;;9.29;nan;101698.91;5059315;28;19923;-32
2022/12/28 04:15:41;;;;;;;;;;;;;;;9.33;nan;101694.75;5061086;28;20360;-31
2022/12/28 04:18:07;;;;;;;;;;;;;;;9.32;nan;101685.91;5058473;28;19916;-31
2022/12/28 04:20:32;;;;;;;;;;;;;;;9.33;nan;101682.22;5065622;28;19916;-31
2022/12/28 04:22:57;;;;;;;;;;;;;;;9.35;nan;101677.50;5064427;28;19916;-32
2022/12/28 04:25:23;;;;;;;;;;;;;;;9.36;nan;101672.97;5058366;28;19927;-32
2022/12/28 04:27:48;;;;;;;;;;;;;;;9.34;nan;101670.50;5058958;28;20139;-32
2022/12/28 04:30:13;;;;;;;;;;;;;;;9.32;nan;101669.88;5063099;28;19959;-31
2022/12/28 04:32:39;;;;;;;;;;;;;;;9.28;nan;101657.97;5068422;28;19928;-32
2022/12/28 04:35:04;;;;;;;;;;;;;;;9.22;nan;101658.03;5069622;28;19917;-32
2022/12/28 04:37:29;;;;;;;;;;;;;;;9.19;nan;101659.31;5064101;28;19973;-31
2022/12/28 04:39:55;;;;;;;;;;;;;;;9.17;nan;101653.34;5065516;28;19916;-32
2022/12/28 04:42:20;;;;;;;;;;;;;;;9.16;nan;101657.06;5071539;28;19982;-31
2022/12/28 04:44:46;;;;;;;;;;;;;;;9.12;nan;101658.50;5069836;28;20366;-32
2022/12/28 04:47:12;;;;;;;;;;;;;;;9.09;nan;101638.38;5060423;28;19974;-32
2022/12/28 04:49:37;;;;;;;;;;;;;;;9.11;nan;101635.47;5062907;28;19966;-32
2022/12/28 04:52:02;;;;;;;;;;;;;;;9.13;nan;101646.78;5066775;28;19959;-32
2022/12/28 04:54:28;;;;;;;;;;;;;;;9.09;nan;101634.88;5067024;28;20171;-31
2022/12/28 04:56:53;;;;;;;;;;;;;;;9.11;nan;101630.13;5063488;28;19970;-32
2022/12/28 04:59:18;;;;;;;;;;;;;;;9.12;nan;101637.13;5062791;28;20040;-31
2022/12/28 05:01:44;;;;;;;;;;;;;;;9.10;nan;101628.50;5062177;28;19927;-31
2022/12/28 05:04:09;;;;;;;;;;;;;;;9.12;nan;101621.06;5061734;28;19923;-31
2022/12/28 05:06:34;;;;;;;;;;;;;;;9.17;nan;101628.47;5065353;28;19926;-32
2022/12/28 05:09:00;;;;;;;;;;;;;;;9.15;nan;101631.34;5061709;28;19917;-31
2022/12/28 05:11:26;;;;;;;;;;;;;;;9.21;nan;101630.47;5063129;28;19916;-32
2022/12/28 05:13:52;;;;;;;;;;;;;;;9.22;nan;101620.59;5060936;28;19916;-32
2022/12/28 05:16:18;;;;;;;;;;;;;;;9.22;nan;101620.59;5064487;28;20401;-32
2022/12/28 05:18:43;;;;;;;;;;;;;;;9.25;nan;101612.16;5064536;28;20556;-32
2022/12/28 05:21:11;;;;;;;;;;;;;;;9.19;nan;101615.69;5062052;28;20006;-32
2022/12/28 05:23:36;;;;;;;;;;;;;;;9.18;nan;101606.03;5061961;28;19923;-31
2022/12/28 05:26:06;;;;;;;;;;;;;;;9.18;nan;101606.03;5060341;28;19920;-31
2022/12/28 05:28:31;;;;;;;;;;;;;;;9.18;nan;101606.88;5066131;28;20284;-31
2022/12/28 05:31:01;;;;;;;;;;;;;;;9.17;nan;101607.09;5062545;28;19925;-32
2022/12/28 05:33:29;;;;;;;;;;;;;;;9.17;nan;101599.88;5064825;28;19947;-31
2022/12/28 05:35:55;;;;;;;;;;;;;;;9.17;nan;101602.56;5068236;28;19916;-31
2022/12/28 05:38:20;;;;;;;;;;;;;;;9.20;nan;101604.78;5065754;28;19924;-31
2022/12/28 05:40:46;;;;;;;;;;;;;;;9.15;nan;101599.25;5067887;28;19916;-32
2022/12/28 05:43:11;;;;;;;;;;;;;;;9.18;nan;101604.19;5063235;28;20309;-32
2022/12/28 05:45:36;;;;;;;;;;;;;;;9.15;nan;101604.59;5061599;28;19916;-32
2022/12/28 05:48:02;;;;;;;;;;;;;;;9.18;nan;101593.50;5062107;28;19931;-32
2022/12/28 05:50:27;;;;;;;;;;;;;;;9.15;nan;101593.09;5067929;28;19924;-32
2022/12/28 05:52:52;;;;;;;;;;;;;;;9.16;nan;101590.22;5064005;28;19920;-32
2022/12/28 05:55:18;;;;;;;;;;;;;;;9.16;nan;101590.22;5060156;28;19939;-32
2022/12/28 05:57:43;;;;;;;;;;;;;;;9.18;nan;101582.78;5064098;28;19967;-32
2022/12/28 06:00:09;;;;;;;;;;;;;;;9.19;nan;101595.13;5064447;28;19975;-32
2022/12/28 06:02:34;;;;;;;;;;;;;;;9.19;nan;101581.75;5064390;28;19916;-31
2022/12/28 06:04:59;;;;;;;;;;;;;;;9.20;nan;101578.03;5060479;28;20063;-32
2022/12/28 06:07:25;;;;;;;;;;;;;;;9.22;nan;101575.16;5059159;28;20350;-32
2022/12/28 06:09:50;;;;;;;;;;;;;;;9.21;nan;101578.88;5065140;28;20349;-32
2022/12/28 06:12:16;;;;;;;;;;;;;;;9.19;nan;101567.56;5063172;28;19923;-32
2022/12/28 06:14:42;;;;;;;;;;;;;;;9.14;nan;101572.72;5064451;28;19920;-32
2022/12/28 06:17:07;;;;;;;;;;;;;;;9.14;nan;101565.53;5064692;28;19920;-32
2022/12/28 06:19:32;;;;;;;;;;;;;;;9.10;nan;101569.69;5069738;28;19927;-32
2022/12/28 06:21:58;;;;;;;;;;;;;;;9.11;nan;101557.13;5064218;28;20292;-32
2022/12/28 06:24:23;;;;;;;;;;;;;;;9.05;nan;101559.66;5063952;28;19927;-31
2022/12/28 06:26:48;;;;;;;;;;;;;;;9.08;nan;101558.41;5064680;28;19994;-31
2022/12/28 06:29:14;;;;;;;;;;;;;;;9.06;nan;101547.91;5059891;28;20494;-32
2022/12/28 06:31:42;;;;;;;;;;;;;;;9.08;nan;101553.03;5059824;28;20149;-32
2022/12/28 06:34:08;;;;;;;;;;;;;;;9.09;nan;101536.78;5062025;28;19917;-31
2022/12/28 06:36:41;;;;;;;;;;;;;;;9.13;nan;101547.84;5061021;28;19916;-32
2022/12/28 06:39:08;;;;;;;;;;;;;;;9.10;nan;101537.59;5058299;28;19924;-31
2022/12/28 06:41:33;;;;;;;;;;;;;;;9.11;nan;101539.25;5064374;28;19920;-32
2022/12/28 06:43:59;;;;;;;;;;;;;;;9.08;nan;101534.34;5061869;28;19917;-32
2022/12/28 06:46:25;;;;;;;;;;;;;;;9.09;nan;101530.63;5060728;28;19966;-32
2022/12/28 06:48:51;;;;;;;;;;;;;;;9.07;nan;101525.50;5062712;28;20331;-32
2022/12/28 06:51:17;;;;;;;;;;;;;;;9.06;nan;101521.19;5058711;28;21248;-32
2022/12/28 06:53:43;;;;;;;;;;;;;;;9.08;nan;101523.63;5065967;28;19920;-32
2022/12/28 06:56:13;;;;;;;;;;;;;;;9.05;nan;101516.06;5061226;28;20436;-32
2022/12/28 06:58:38;;;;;;;;;;;;;;;9.09;nan;101509.22;5062008;28;20112;-32
2022/12/28 07:01:08;;;;;;;;;;;;;;;9.13;nan;101502.41;5058395;28;19916;-32
2022/12/28 07:03:33;;;;;;;;;;;;;;;9.13;nan;101491.72;5059957;28;19928;-32
2022/12/28 07:05:59;;;;;;;;;;;;;;;9.17;nan;101484.09;5058993;28;19917;-32
2022/12/28 07:08:25;;;;;;;;;;;;;;;9.22;nan;101481.56;5059929;28;19920;-32
2022/12/28 07:10:50;;;;;;;;;;;;;;;9.23;nan;101494.72;5060261;28;19970;-32
2022/12/28 07:13:15;;;;;;;;;;;;;;;9.24;nan;101490.19;5057874;28;19962;-32
2022/12/28 07:15:41;;;;;;;;;;;;;;;9.25;nan;101479.25;5061553;28;19931;-32
2022/12/28 07:18:06;;;;;;;;;;;;;;;9.28;nan;101468.13;5059847;28;19925;-32
2022/12/28 07:20:31;;;;;;;;;;;;;;;9.31;nan;101473.00;5064380;28;20165;-32
2022/12/28 07:22:57;;;;;;;;;;;;;;;9.32;nan;101469.31;5059624;28;19916;-31
2022/12/28 07:25:22;;;;;;;;;;;;;;;9.36;nan;101469.69;5060368;28;19931;-32
2022/12/28 07:27:47;;;;;;;;;;;;;;;9.39;nan;101462.03;5064381;28;19924;-32
2022/12/28 07:30:13;;;;;;;;;;;;;;;9.42;nan;101457.28;5068398;28;19912;-32
2022/12/28 07:32:38;;;;;;;;;;;;;;;9.46;nan;101455.78;5063140;28;19970;-32
2022/12/28 07:35:04;;;;;;;;;;;;;;;9.49;nan;101461.50;5059982;28;19924;-32
2022/12/28 07:37:29;;;;;;;;;;;;;;;9.49;nan;101458.84;5058413;28;19966;-32
2022/12/28 07:39:55;;;;;;;;;;;;;;;9.55;nan;101455.28;5063319;28;19967;-32
2022/12/28 07:42:20;;;;;;;;;;;;;;;9.60;nan;101457.28;5057488;28;19921;-32
2022/12/28 07:44:46;;;;;;;;;;;;;;;9.56;nan;101451.56;5058188;22;19936;-33
2022/12/28 07:47:12;;;;;;;;;;;;;;;9.61;nan;101442.84;5025364;28;19921;-33
2022/12/28 07:49:37;;;;;;;;;;;;;;;9.66;nan;101451.84;5022868;28;19960;-33
2022/12/28 07:52:03;;;;;;;;;;;;;;;9.65;nan;101444.03;5026568;28;19928;-32
2022/12/28 07:54:28;;;;;;;;;;;;;;;9.63;nan;101440.78;5022828;28;19983;-33
2022/12/28 07:56:53;;;;;;;;;;;;;;;9.66;nan;101441.13;5025123;28;19925;-33
2022/12/28 07:59:19;;;;;;;;;;;;;;;9.70;nan;101446.88;5023589;28;19986;-32
2022/12/28 08:01:44;;;;;;;;;;;;;;;9.74;nan;101449.91;5019570;28;20028;-32
2022/12/28 08:04:12;;;;;;;;;;;;;;;9.70;nan;101444.19;5023687;28;20027;-32
2022/12/28 08:06:39;;;;;;;;;;;;;;;9.69;nan;101437.19;5024627;28;19921;-32
2022/12/28 08:09:04;;;;;;;;;;;;;;;9.74;nan;101426.66;5030667;28;19959;-33
2022/12/28 08:11:31;;;;;;;;;;;;;;;9.79;nan;101431.31;5022994;28;19984;-33
2022/12/28 08:13:57;;;;;;;;;;;;;;;9.86;nan;101424.00;5027904;28;19951;-33
2022/12/28 08:16:23;;;;;;;;;;;;;;;9.82;nan;101420.97;5022219;28;19925;-33
2022/12/28 08:18:49;;;;;;;;;;;;;;;9.82;nan;101418.28;5024556;28;20166;-33
2022/12/28 08:21:18;;;;;;;;;;;;;;;9.85;nan;101414.34;5026931;28;19917;-33
2022/12/28 08:23:44;;;;;;;;;;;;;;;9.81;nan;101400.59;5021751;28;19929;-33
2022/12/28 08:26:13;;;;;;;;;;;;;;;9.87;nan;101410.38;5027917;28;19976;-33
2022/12/28 08:28:38;;;;;;;;;;;;;;;9.90;nan;101401.94;5027601;28;20000;-33
2022/12/28 08:31:14;;;;;;;;;;;;;;;9.88;nan;101385.28;5027324;28;20441;-33
2022/12/28 08:33:40;;;;;;;;;;;;;;;9.91;nan;101400.06;5024885;28;20856;-33
2022/12/28 08:36:06;;;;;;;;;;;;;;;9.89;nan;101389.59;5024297;28;20112;-32
2022/12/28 08:38:32;;;;;;;;;;;;;;;9.96;nan;101392.16;5028399;28;20007;-33
2022/12/28 08:40:58;;;;;;;;;;;;;;;9.99;nan;101394.38;5030434;28;20000;-33
2022/12/28 08:43:24;;;;;;;;;;;;;;;9.99;nan;101392.53;5020842;28;19935;-32
2022/12/28 08:46:00;;;;;;;;;;;;;;;9.98;nan;101390.06;5025211;28;20435;-33
2022/12/28 08:48:26;;;;;;;;;;;;;;;10.00;nan;101374.59;5026768;28;19925;-33
2022/12/28 08:50:51;;;;;;;;;;;;;;;10.03;nan;101373.31;5028983;28;19917;-33
2022/12/28 08:53:16;;;;;;;;;;;;;;;10.05;nan;101360.50;5027225;28;20341;-33
2022/12/28 08:55:42;;;;;;;;;;;;;;;10.08;nan;101365.44;5025004;28;20363;-33
2022/12/28 08:58:07;;;;;;;;;;;;;;;10.09;nan;101354.50;5024631;28;20440;-33
2022/12/28 09:00:32;;;;;;;;;;;;;;;10.14;nan;101356.47;5024309;28;20420;-33
2022/12/28 09:02:58;;;;;;;;;;;;;;;10.18;nan;101352.28;5023588;28;19917;-33
2022/12/28 09:05:23;;;;;;;;;;;;;;;10.27;nan;101356.31;5021659;28;20011;-33
2022/12/28 09:07:49;;;;;;;;;;;;;;;10.29;nan;101349.66;5020647;28;20052;-33
2022/12/28 09:10:15;;;;;;;;;;;;;;;10.34;nan;101340.94;5027632;28;19929;-32
2022/12/28 09:12:40;;;;;;;;;;;;;;;10.41;nan;101344.31;5029059;28;19917;-32
2022/12/28 09:15:06;;;;;;;;;;;;;;;10.43;nan;101338.72;5019789;28;19924;-32
2022/12/28 09:17:31;;;;;;;;;;;;;;;10.51;nan;101351.78;5021539;28;19924;-33
2022/12/28 09:19:56;;;;;;;;;;;;;;;10.55;nan;101347.56;5027497;28;19928;-33
2022/12/28 09:22:22;;;;;;;;;;;;;;;10.63;nan;101349.09;5022279;28;19925;-33
2022/12/28 09:24:47;;;;;;;;;;;;;;;10.66;nan;101343.28;5021883;28;19928;-33
2022/12/28 09:27:12;;;;;;;;;;;;;;;10.70;nan;101341.75;5022186;28;19929;-33
2022/12/28 09:29:38;;;;;;;;;;;;;;;10.73;nan;101350.13;5019201;28;19917;-33
2022/12/28 09:32:03;;;;;;;;;;;;;;;10.72;nan;101345.81;5021659;28;19924;-33
2022/12/28 09:34:28;;;;;;;;;;;;;;;10.83;nan;101330.78;5023104;28;19924;-33
2022/12/28 09:36:54;;;;;;;;;;;;;;;10.79;nan;101324.28;5020521;28;20436;-32
2022/12/28 09:39:21;;;;;;;;;;;;;;;10.78;nan;101330.69;5022302;28;20386;-32
2022/12/28 09:41:54;;;;;;;;;;;;;;;10.88;nan;101328.19;5023914;28;20682;-32
2022/12/28 09:44:25;;;;;;;;;;;;;;;10.76;nan;101322.84;5018085;28;20412;-32
2022/12/28 09:46:59;;;;;;;;;;;;;;;10.73;nan;101314.47;5022345;28;20007;-32
2022/12/28 09:49:44;;;;;;;;;;;;;;;10.73;nan;101311.78;5021518;28;20381;-32
2022/12/28 09:52:13;;;;;;;;;;;;;;;10.68;nan;101293.75;4994081;28;19964;-33
2022/12/28 09:54:38;;;;;;;;;;;;;;;10.69;nan;101294.56;5021009;28;19921;-33
2022/12/28 09:57:18;;;;;;;;;;;;;;;10.73;nan;101284.97;5026983;28;20302;-32
2022/12/28 09:59:45;;;;;;;;;;;;;;;10.78;nan;101295.84;5023731;28;20568;-32
2022/12/28 10:02:17;;;;;;;;;;;;;;;10.79;nan;101290.25;5027801;28;19925;-32
2022/12/28 10:04:42;;;;;;;;;;;;;;;10.81;nan;101285.44;5019438;28;20302;-32
2022/12/28 10:07:09;;;;;;;;;;;;;;;10.84;nan;101287.66;5025467;28;19932;-33
2022/12/28 10:09:35;;;;;;;;;;;;;;;10.85;nan;101294.66;5023366;28;19921;-32
2022/12/28 10:12:11;;;;;;;;;;;;;;;10.85;nan;101289.28;5023247;28;19921;-32
2022/12/28 10:14:37;;;;;;;;;;;;;;;10.88;nan;101291.50;5028194;28;19932;-32
2022/12/28 10:17:04;;;;;;;;;;;;;;;10.86;nan;101282.06;5024460;28;20298;-32
2022/12/28 10:19:29;;;;;;;;;;;;;;;10.87;nan;101292.53;5023709;28;19924;-32
2022/12/28 10:22:02;;;;;;;;;;;;;;;10.94;nan;101287.03;5028507;28;19928;-32
2022/12/28 10:24:28;;;;;;;;;;;;;;;10.92;nan;101270.38;5021651;28;19942;-32
2022/12/28 10:26:55;;;;;;;;;;;;;;;10.95;nan;101274.44;5018864;28;20110;-32
2022/12/28 10:29:21;;;;;;;;;;;;;;;11.01;nan;101262.78;5022629;28;19952;-33
2022/12/28 10:31:58;;;;;;;;;;;;;;;11.02;nan;101254.50;5020186;28;19920;-33
2022/12/28 10:34:24;;;;;;;;;;;;;;;11.04;nan;101260.44;5022514;28;19921;-32
2022/12/28 10:36:50;;;;;;;;;;;;;;;11.09;nan;101247.13;5025084;28;20074;-32
2022/12/28 10:39:20;;;;;;;;;;;;;;;11.08;nan;101258.09;5017724;28;19956;-33
2022/12/28 10:41:46;;;;;;;;;;;;;;;11.08;nan;101245.50;5024381;28;20015;-32
2022/12/28 10:44:24;;;;;;;;;;;;;;;11.05;nan;101248.66;5022632;28;20386;-33
2022/12/28 10:47:00;;;;;;;;;;;;;;;11.09;nan;101246.31;5021969;28;19975;-33
2022/12/28 10:49:27;;;;;;;;;;;;;;;11.12;nan;101241.28;5017255;28;20397;-32
2022/12/28 10:52:03;;;;;;;;;;;;;;;11.09;nan;101236.41;5020283;28;19921;-32
2022/12/28 10:54:30;;;;;;;;;;;;;;;11.12;nan;101251.19;5020232;28;20055;-33
2022/12/28 10:56:56;;;;;;;;;;;;;;;11.13;nan;101248.28;5022920;28;20106;-33
2022/12/28 10:59:26;;;;;;;;;;;;;;;11.16;nan;101234.41;5018362;28;19975;-33
2022/12/28 11:01:52;;;;;;;;;;;;;;;11.24;nan;101230.50;5025864;28;19917;-32
2022/12/28 11:04:22;;;;;;;;;;;;;;;11.34;nan;101216.47;5024537;28;19924;-33
2022/12/28 11:06:52;;;;;;;;;;;;;;;11.36;nan;101231.28;5023166;28;19935;-33
2022/12/28 11:09:25;;;;;;;;;;;;;;;11.35;nan;101224.28;5020870;28;20011;-33
2022/12/28 11:11:52;;;;;;;;;;;;;;;11.34;nan;101206.56;5019194;28;19960;-33
2022/12/28 11:14:17;;;;;;;;;;;;;;;11.36;nan;101200.94;5019269;28;20118;-33
2022/12/28 11:16:43;;;;;;;;;;;;;;;11.40;nan;101194.03;5018911;28;20114;-33
2022/12/28 11:19:09;;;;;;;;;;;;;;;11.45;nan;101186.06;5018180;28;20309;-33
2022/12/28 11:21:35;;;;;;;;;;;;;;;11.46;nan;101188.50;5020973;28;19921;-33
2022/12/28 11:24:00;;;;;;;;;;;;;;;11.47;nan;101182.06;5020174;28;20055;-33
2022/12/28 11:26:26;;;;;;;;;;;;;;;11.50;nan;101172.75;5019110;28;19944;-33
2022/12/28 11:28:52;;;;;;;;;;;;;;;11.53;nan;101177.63;5025960;28;19924;-33
2022/12/28 11:31:21;;;;;;;;;;;;;;;11.52;nan;101170.63;5017475;28;19925;-33
2022/12/28 11:33:51;;;;;;;;;;;;;;;11.55;nan;101169.31;5020047;28;19926;-33
2022/12/28 11:36:18;;;;;;;;;;;;;;;11.56;nan;101166.41;5022828;28;19936;-33
2022/12/28 11:38:45;;;;;;;;;;;;;;;11.62;nan;101165.41;5017373;28;19917;-33
2022/12/28 11:41:30;;;;;;;;;;;;;;;11.68;nan;101159.09;5027875;28;19925;-33
2022/12/28 11:43:57;;;;;;;;;;;;;;;11.71;nan;101147.84;5019842;28;20313;-34
2022/12/28 11:46:23;;;;;;;;;;;;;;;11.72;nan;101157.53;5020208;28;19936;-33
2022/12/28 11:49:02;;;;;;;;;;;;;;;11.72;nan;101141.44;5025045;28;20169;-33
2022/12/28 11:51:35;;;;;;;;;;;;;;;11.71;nan;101145.16;5027246;28;19920;-33
2022/12/28 11:54:00;;;;;;;;;;;;;;;11.73;nan;101135.00;5028111;28;19982;-33
2022/12/28 11:56:40;;;;;;;;;;;;;;;11.81;nan;101152.56;5027210;28;19929;-33
2022/12/28 11:59:19;;;;;;;;;;;;;;;11.78;nan;101159.25;5022254;28;19928;-33
2022/12/28 12:01:45;;;;;;;;;;;;;;;11.79;nan;101144.78;5025742;28;19971;-33
2022/12/28 12:04:18;;;;;;;;;;;;;;;11.84;nan;101140.53;5024844;28;20012;-33
2022/12/28 12:06:47;;;;;;;;;;;;;;;11.92;nan;101140.13;5021800;28;20390;-33
2022/12/28 12:09:25;;;;;;;;;;;;;;;11.97;nan;101149.06;5023473;28;20052;-33
2022/12/28 12:11:50;;;;;;;;;;;;;;;11.95;nan;101128.88;5023380;28;19924;-33
2022/12/28 12:14:18;;;;;;;;;;;;;;;11.99;nan;101132.69;5026727;28;19922;-33
2022/12/28 12:16:48;;;;;;;;;;;;;;;11.99;nan;101127.31;5026172;28;19917;-33
2022/12/28 12:19:23;;;;;;;;;;;;;;;12.03;nan;101131.16;5020413;28;20033;-33
2022/12/28 12:21:57;;;;;;;;;;;;;;;12.02;nan;101122.25;5025877;28;20393;-34
2022/12/28 12:24:31;;;;;;;;;;;;;;;12.08;nan;101128.53;5018494;28;19924;-33
2022/12/28 12:27:00;;;;;;;;;;;;;;;12.07;nan;101118.84;5014706;28;19929;-33
2022/12/28 12:29:44;;;;;;;;;;;;;;;12.14;nan;101113.28;5020550;28;21229;-33
2022/12/28 12:32:21;;;;;;;;;;;;;;;12.17;nan;101108.22;5022760;28;19925;-33
2022/12/28 12:34:50;;;;;;;;;;;;;;;12.16;nan;101106.59;5022549;28;19925;-33
2022/12/28 12:37:35;;;;;;;;;;;;;;;12.18;nan;101123.28;5025741;28;19917;-33
2022/12/28 12:40:01;;;;;;;;;;;;;;;12.22;nan;101120.94;5025921;28;20421;-33
2022/12/28 12:42:29;;;;;;;;;;;;;;;12.27;nan;101108.34;5023432;28;19924;-33
2022/12/28 12:45:12;;;;;;;;;;;;;;;12.31;nan;101125.59;5018880;28;19956;-33
2022/12/28 12:47:57;;;;;;;;;;;;;;;12.27;nan;101119.09;5019304;28;19949;-33
2022/12/28 12:50:28;;;;;;;;;;;;;;;12.30;nan;101113.22;5023827;28;20267;-33
2022/12/28 12:53:03;;;;;;;;;;;;;;;12.33;nan;101112.72;5025137;28;20016;-33
2022/12/28 12:55:37;;;;;;;;;;;;;;;12.39;nan;101117.13;5022008;28;20053;-33
2022/12/28 12:58:21;;;;;;;;;;;;;;;12.37;nan;101119.22;5019409;28;20718;-33
2022/12/28 13:01:07;;;;;;;;;;;;;;;12.44;nan;101107.47;5023654;28;19925;-33
2022/12/28 13:03:50;;;;;;;;;;;;;;;12.51;nan;101111.59;5023383;28;20262;-33
2022/12/28 13:06:18;;;;;;;;;;;;;;;12.53;nan;101105.94;5028011;28;19963;-33
2022/12/28 13:08:47;;;;;;;;;;;;;;;12.60;nan;101114.66;5029138;28;19920;-33
2022/12/28 13:11:13;;;;;;;;;;;;;;;12.62;nan;101110.66;5024657;28;20287;-33
2022/12/28 13:13:40;;;;;;;;;;;;;;;12.64;nan;101111.19;5026574;28;19920;-33
2022/12/28 13:16:25;;;;;;;;;;;;;;;12.71;nan;101111.81;5028850;28;20368;-33
2022/12/28 13:18:54;;;;;;;;;;;;;;;12.76;nan;101108.38;5023399;28;20382;-33
2022/12/28 13:21:21;;;;;;;;;;;;;;;12.81;nan;101108.41;5022708;28;19964;-33
2022/12/28 13:23:46;;;;;;;;;;;;;;;12.84;nan;101113.28;5026628;28;19928;-34
2022/12/28 13:26:13;;;;;;;;;;;;;;;12.81;nan;101097.66;5029469;28;19925;-33
2022/12/28 13:28:44;;;;;;;;;;;;;;;12.78;nan;101098.16;5028666;28;19925;-33